sensor_id;sensor_type;location;lat;lon;timestamp;P1;durP1;ratioP1;P2;durP2;ratioP2
51901;SDS011;37929;53.218;6.548;2022-08-19T00:00:37;8.27;;;6.90;;
51901;SDS011;37929;53.218;6.548;2022-08-19T00:03:06;9.13;;;6.40;;
51901;SDS011;37929;53.218;6.548;2022-08-19T00:05:32;9.57;;;6.82;;
51901;SDS011;37929;53.218;6.548;2022-08-19T00:07:58;10.13;;;6.80;;
51901;SDS011;37929;53.218;6.548;2022-08-19T00:10:24;9.95;;;7.65;;
51901;SDS011;37929;53.218;6.548;2022-08-19T00:12:50;10.65;;;6.70;;
51901;SDS011;37929;53.218;6.548;2022-08-19T00:15:17;8.27;;;5.90;;
51901;SDS011;37929;53.218;6.548;2022-08-19T00:17:44;10.18;;;6.22;;
51901;SDS011;37929;53.218;6.548;2022-08-19T00:20:14;11.73;;;6.60;;
51901;SDS011;37929;53.218;6.548;2022-08-19T00:22:43;9.23;;;6.50;;
51901;SDS011;37929;53.218;6.548;2022-08-19T00:25:09;10.98;;;6.88;;
51901;SDS011;37929;53.218;6.548;2022-08-19T00:27:35;9.48;;;6.85;;
51901;SDS011;37929;53.218;6.548;2022-08-19T00:30:05;7.75;;;6.03;;
51901;SDS011;37929;53.218;6.548;2022-08-19T00:32:35;10.50;;;6.57;;
51901;SDS011;37929;53.218;6.548;2022-08-19T00:35:01;8.50;;;6.00;;
51901;SDS011;37929;53.218;6.548;2022-08-19T00:37:30;9.65;;;7.20;;
51901;SDS011;37929;53.218;6.548;2022-08-19T00:39:59;10.95;;;7.07;;
51901;SDS011;37929;53.218;6.548;2022-08-19T00:42:27;9.73;;;7.03;;
51901;SDS011;37929;53.218;6.548;2022-08-19T00:44:53;9.30;;;7.22;;
51901;SDS011;37929;53.218;6.548;2022-08-19T00:47:19;8.73;;;6.95;;
51901;SDS011;37929;53.218;6.548;2022-08-19T00:49:49;10.75;;;7.10;;
51901;SDS011;37929;53.218;6.548;2022-08-19T00:52:35;12.38;;;7.32;;
51901;SDS011;37929;53.218;6.548;2022-08-19T00:55:04;7.57;;;6.65;;
51901;SDS011;37929;53.218;6.548;2022-08-19T00:57:36;11.73;;;6.60;;
51901;SDS011;37929;53.218;6.548;2022-08-19T01:00:07;8.32;;;6.13;;
51901;SDS011;37929;53.218;6.548;2022-08-19T01:02:37;10.13;;;6.90;;
51901;SDS011;37929;53.218;6.548;2022-08-19T01:05:05;10.32;;;7.20;;
51901;SDS011;37929;53.218;6.548;2022-08-19T01:07:37;10.73;;;7.70;;
51901;SDS011;37929;53.218;6.548;2022-08-19T01:10:06;13.32;;;8.07;;
51901;SDS011;37929;53.218;6.548;2022-08-19T01:12:35;10.25;;;8.02;;
51901;SDS011;37929;53.218;6.548;2022-08-19T01:15:02;11.27;;;7.75;;
51901;SDS011;37929;53.218;6.548;2022-08-19T01:17:29;10.93;;;7.53;;
51901;SDS011;37929;53.218;6.548;2022-08-19T01:19:55;12.27;;;7.95;;
51901;SDS011;37929;53.218;6.548;2022-08-19T01:24:53;9.00;;;7.60;;
51901;SDS011;37929;53.218;6.548;2022-08-19T01:27:19;10.93;;;7.88;;
51901;SDS011;37929;53.218;6.548;2022-08-19T01:29:45;10.43;;;7.82;;
51901;SDS011;37929;53.218;6.548;2022-08-19T01:32:12;9.20;;;7.40;;
51901;SDS011;37929;53.218;6.548;2022-08-19T01:34:40;9.85;;;7.15;;
51901;SDS011;37929;53.218;6.548;2022-08-19T01:37:06;10.13;;;7.40;;
51901;SDS011;37929;53.218;6.548;2022-08-19T01:39:35;13.93;;;8.82;;
51901;SDS011;37929;53.218;6.548;2022-08-19T01:42:02;11.05;;;8.93;;
51901;SDS011;37929;53.218;6.548;2022-08-19T01:44:29;14.50;;;9.07;;
51901;SDS011;37929;53.218;6.548;2022-08-19T01:46:55;13.40;;;10.60;;
51901;SDS011;37929;53.218;6.548;2022-08-19T01:49:22;16.13;;;10.63;;
51901;SDS011;37929;53.218;6.548;2022-08-19T01:51:50;15.32;;;10.02;;
51901;SDS011;37929;53.218;6.548;2022-08-19T01:54:17;13.93;;;10.55;;
51901;SDS011;37929;53.218;6.548;2022-08-19T01:56:43;17.35;;;11.00;;
51901;SDS011;37929;53.218;6.548;2022-08-19T01:59:14;16.75;;;11.10;;
51901;SDS011;37929;53.218;6.548;2022-08-19T02:01:42;20.05;;;11.48;;
51901;SDS011;37929;53.218;6.548;2022-08-19T02:04:08;14.95;;;11.40;;
51901;SDS011;37929;53.218;6.548;2022-08-19T02:06:34;14.73;;;11.10;;
51901;SDS011;37929;53.218;6.548;2022-08-19T02:09:00;16.38;;;10.82;;
51901;SDS011;37929;53.218;6.548;2022-08-19T02:11:30;15.10;;;11.02;;
51901;SDS011;37929;53.218;6.548;2022-08-19T02:13:58;17.85;;;11.48;;
51901;SDS011;37929;53.218;6.548;2022-08-19T02:16:27;12.65;;;9.90;;
51901;SDS011;37929;53.218;6.548;2022-08-19T02:18:53;14.00;;;10.70;;
51901;SDS011;37929;53.218;6.548;2022-08-19T02:21:21;14.07;;;10.95;;
51901;SDS011;37929;53.218;6.548;2022-08-19T02:23:48;15.73;;;10.35;;
51901;SDS011;37929;53.218;6.548;2022-08-19T02:26:16;15.50;;;9.48;;
51901;SDS011;37929;53.218;6.548;2022-08-19T02:28:43;15.30;;;10.52;;
51901;SDS011;37929;53.218;6.548;2022-08-19T02:31:10;17.60;;;10.55;;
51901;SDS011;37929;53.218;6.548;2022-08-19T02:33:42;15.82;;;9.85;;
51901;SDS011;37929;53.218;6.548;2022-08-19T02:36:09;15.50;;;10.15;;
51901;SDS011;37929;53.218;6.548;2022-08-19T02:38:38;13.50;;;9.35;;
51901;SDS011;37929;53.218;6.548;2022-08-19T02:41:13;13.35;;;10.10;;
51901;SDS011;37929;53.218;6.548;2022-08-19T02:43:41;13.77;;;9.27;;
51901;SDS011;37929;53.218;6.548;2022-08-19T02:46:15;13.65;;;8.73;;
51901;SDS011;37929;53.218;6.548;2022-08-19T02:48:49;12.30;;;8.88;;
51901;SDS011;37929;53.218;6.548;2022-08-19T02:51:24;12.40;;;8.55;;
51901;SDS011;37929;53.218;6.548;2022-08-19T02:53:58;12.00;;;8.95;;
51901;SDS011;37929;53.218;6.548;2022-08-19T02:56:25;12.57;;;9.57;;
51901;SDS011;37929;53.218;6.548;2022-08-19T02:58:52;15.13;;;9.50;;
51901;SDS011;37929;53.218;6.548;2022-08-19T03:01:20;11.98;;;9.18;;
51901;SDS011;37929;53.218;6.548;2022-08-19T03:03:48;13.80;;;9.35;;
51901;SDS011;37929;53.218;6.548;2022-08-19T03:06:15;10.35;;;7.78;;
51901;SDS011;37929;53.218;6.548;2022-08-19T03:08:41;13.32;;;9.18;;
51901;SDS011;37929;53.218;6.548;2022-08-19T03:11:16;12.95;;;8.40;;
51901;SDS011;37929;53.218;6.548;2022-08-19T03:13:47;12.98;;;9.13;;
51901;SDS011;37929;53.218;6.548;2022-08-19T03:16:16;13.35;;;9.45;;
51901;SDS011;37929;53.218;6.548;2022-08-19T03:18:43;11.98;;;8.70;;
51901;SDS011;37929;53.218;6.548;2022-08-19T03:21:10;12.43;;;8.93;;
51901;SDS011;37929;53.218;6.548;2022-08-19T03:23:53;13.27;;;8.80;;
51901;SDS011;37929;53.218;6.548;2022-08-19T03:26:19;14.25;;;8.80;;
51901;SDS011;37929;53.218;6.548;2022-08-19T03:28:45;12.75;;;8.73;;
51901;SDS011;37929;53.218;6.548;2022-08-19T03:31:15;13.18;;;8.18;;
51901;SDS011;37929;53.218;6.548;2022-08-19T03:33:43;12.68;;;8.73;;
51901;SDS011;37929;53.218;6.548;2022-08-19T03:36:14;11.85;;;9.25;;
51901;SDS011;37929;53.218;6.548;2022-08-19T03:38:46;13.15;;;8.55;;
51901;SDS011;37929;53.218;6.548;2022-08-19T03:41:14;12.88;;;8.70;;
51901;SDS011;37929;53.218;6.548;2022-08-19T03:43:42;13.20;;;9.05;;
51901;SDS011;37929;53.218;6.548;2022-08-19T03:46:13;10.90;;;8.30;;
51901;SDS011;37929;53.218;6.548;2022-08-19T03:48:48;11.15;;;9.25;;
51901;SDS011;37929;53.218;6.548;2022-08-19T03:51:29;12.57;;;8.60;;
51901;SDS011;37929;53.218;6.548;2022-08-19T03:53:57;10.75;;;8.68;;
51901;SDS011;37929;53.218;6.548;2022-08-19T03:56:25;12.50;;;8.90;;
51901;SDS011;37929;53.218;6.548;2022-08-19T03:58:52;17.52;;;9.68;;
51901;SDS011;37929;53.218;6.548;2022-08-19T04:01:21;11.23;;;9.02;;
51901;SDS011;37929;53.218;6.548;2022-08-19T04:03:48;15.27;;;9.50;;
51901;SDS011;37929;53.218;6.548;2022-08-19T04:08:46;13.88;;;9.15;;
51901;SDS011;37929;53.218;6.548;2022-08-19T04:11:14;16.38;;;9.63;;
51901;SDS011;37929;53.218;6.548;2022-08-19T04:13:41;15.73;;;10.52;;
51901;SDS011;37929;53.218;6.548;2022-08-19T04:16:10;14.48;;;9.65;;
51901;SDS011;37929;53.218;6.548;2022-08-19T04:18:37;15.70;;;9.88;;
51901;SDS011;37929;53.218;6.548;2022-08-19T04:21:04;11.98;;;9.65;;
51901;SDS011;37929;53.218;6.548;2022-08-19T04:23:33;14.75;;;10.27;;
51901;SDS011;37929;53.218;6.548;2022-08-19T04:26:01;12.82;;;9.38;;
51901;SDS011;37929;53.218;6.548;2022-08-19T04:28:27;13.02;;;9.52;;
51901;SDS011;37929;53.218;6.548;2022-08-19T04:30:54;12.13;;;9.20;;
51901;SDS011;37929;53.218;6.548;2022-08-19T04:33:21;10.75;;;8.80;;
51901;SDS011;37929;53.218;6.548;2022-08-19T04:35:51;12.82;;;9.30;;
51901;SDS011;37929;53.218;6.548;2022-08-19T04:38:18;13.85;;;9.93;;
51901;SDS011;37929;53.218;6.548;2022-08-19T04:40:46;10.32;;;8.57;;
51901;SDS011;37929;53.218;6.548;2022-08-19T04:43:32;12.10;;;9.05;;
51901;SDS011;37929;53.218;6.548;2022-08-19T04:46:04;12.43;;;9.70;;
51901;SDS011;37929;53.218;6.548;2022-08-19T04:48:31;14.70;;;9.00;;
51901;SDS011;37929;53.218;6.548;2022-08-19T04:50:57;9.95;;;7.93;;
51901;SDS011;37929;53.218;6.548;2022-08-19T04:55:51;14.63;;;9.07;;
51901;SDS011;37929;53.218;6.548;2022-08-19T04:58:17;11.70;;;8.85;;
51901;SDS011;37929;53.218;6.548;2022-08-19T05:00:43;11.88;;;9.38;;
51901;SDS011;37929;53.218;6.548;2022-08-19T05:03:09;16.77;;;10.35;;
51901;SDS011;37929;53.218;6.548;2022-08-19T05:05:39;14.57;;;9.80;;
51901;SDS011;37929;53.218;6.548;2022-08-19T05:08:11;16.23;;;10.68;;
51901;SDS011;37929;53.218;6.548;2022-08-19T05:10:38;19.70;;;11.82;;
51901;SDS011;37929;53.218;6.548;2022-08-19T05:13:05;13.48;;;10.45;;
51901;SDS011;37929;53.218;6.548;2022-08-19T05:15:34;17.10;;;12.25;;
51901;SDS011;37929;53.218;6.548;2022-08-19T05:18:00;17.00;;;11.32;;
51901;SDS011;37929;53.218;6.548;2022-08-19T05:20:44;21.17;;;13.02;;
51901;SDS011;37929;53.218;6.548;2022-08-19T05:23:29;16.40;;;12.25;;
51901;SDS011;37929;53.218;6.548;2022-08-19T05:25:55;21.38;;;13.35;;
51901;SDS011;37929;53.218;6.548;2022-08-19T05:28:21;21.80;;;13.25;;
51901;SDS011;37929;53.218;6.548;2022-08-19T05:30:47;18.98;;;13.73;;
51901;SDS011;37929;53.218;6.548;2022-08-19T05:33:15;23.15;;;14.30;;
51901;SDS011;37929;53.218;6.548;2022-08-19T05:35:41;20.17;;;13.77;;
51901;SDS011;37929;53.218;6.548;2022-08-19T05:38:09;21.50;;;13.80;;
51901;SDS011;37929;53.218;6.548;2022-08-19T05:40:36;22.80;;;14.90;;
51901;SDS011;37929;53.218;6.548;2022-08-19T05:43:04;21.85;;;14.77;;
51901;SDS011;37929;53.218;6.548;2022-08-19T05:45:31;21.98;;;14.18;;
51901;SDS011;37929;53.218;6.548;2022-08-19T05:47:57;21.70;;;14.13;;
51901;SDS011;37929;53.218;6.548;2022-08-19T05:50:23;19.73;;;14.02;;
51901;SDS011;37929;53.218;6.548;2022-08-19T05:52:51;19.83;;;14.18;;
51901;SDS011;37929;53.218;6.548;2022-08-19T05:55:17;19.98;;;14.00;;
51901;SDS011;37929;53.218;6.548;2022-08-19T05:57:45;20.50;;;13.80;;
51901;SDS011;37929;53.218;6.548;2022-08-19T06:00:11;22.33;;;13.68;;
51901;SDS011;37929;53.218;6.548;2022-08-19T06:02:38;21.65;;;13.43;;
51901;SDS011;37929;53.218;6.548;2022-08-19T06:05:04;21.30;;;14.13;;
51901;SDS011;37929;53.218;6.548;2022-08-19T06:07:35;21.35;;;14.52;;
51901;SDS011;37929;53.218;6.548;2022-08-19T06:10:02;21.92;;;12.77;;
51901;SDS011;37929;53.218;6.548;2022-08-19T06:12:30;21.60;;;13.32;;
51901;SDS011;37929;53.218;6.548;2022-08-19T06:15:09;19.95;;;13.05;;
51901;SDS011;37929;53.218;6.548;2022-08-19T06:17:37;17.55;;;13.25;;
51901;SDS011;37929;53.218;6.548;2022-08-19T06:20:07;18.55;;;12.63;;
51901;SDS011;37929;53.218;6.548;2022-08-19T06:22:46;17.20;;;12.70;;
51901;SDS011;37929;53.218;6.548;2022-08-19T06:25:15;18.63;;;12.55;;
51901;SDS011;37929;53.218;6.548;2022-08-19T06:27:42;16.42;;;12.23;;
51901;SDS011;37929;53.218;6.548;2022-08-19T06:30:08;16.17;;;12.57;;
51901;SDS011;37929;53.218;6.548;2022-08-19T06:32:38;15.00;;;11.82;;
51901;SDS011;37929;53.218;6.548;2022-08-19T06:35:04;15.27;;;12.07;;
51901;SDS011;37929;53.218;6.548;2022-08-19T06:37:30;17.48;;;12.23;;
51901;SDS011;37929;53.218;6.548;2022-08-19T06:40:02;17.33;;;12.23;;
51901;SDS011;37929;53.218;6.548;2022-08-19T06:42:29;15.98;;;11.77;;
51901;SDS011;37929;53.218;6.548;2022-08-19T06:44:55;15.52;;;11.38;;
51901;SDS011;37929;53.218;6.548;2022-08-19T06:47:22;15.88;;;11.57;;
51901;SDS011;37929;53.218;6.548;2022-08-19T06:49:48;13.43;;;11.23;;
51901;SDS011;37929;53.218;6.548;2022-08-19T06:52:14;15.20;;;11.80;;
51901;SDS011;37929;53.218;6.548;2022-08-19T06:54:41;16.38;;;11.88;;
51901;SDS011;37929;53.218;6.548;2022-08-19T06:57:07;16.80;;;11.73;;
51901;SDS011;37929;53.218;6.548;2022-08-19T06:59:34;16.77;;;12.05;;
51901;SDS011;37929;53.218;6.548;2022-08-19T07:02:06;16.67;;;11.88;;
51901;SDS011;37929;53.218;6.548;2022-08-19T07:04:33;17.58;;;12.52;;
51901;SDS011;37929;53.218;6.548;2022-08-19T07:07:13;15.32;;;11.98;;
51901;SDS011;37929;53.218;6.548;2022-08-19T07:09:41;16.73;;;11.85;;
51901;SDS011;37929;53.218;6.548;2022-08-19T07:12:11;15.35;;;11.40;;
51901;SDS011;37929;53.218;6.548;2022-08-19T07:14:40;14.60;;;11.20;;
51901;SDS011;37929;53.218;6.548;2022-08-19T07:17:08;17.52;;;11.63;;
51901;SDS011;37929;53.218;6.548;2022-08-19T07:19:42;13.57;;;11.18;;
51901;SDS011;37929;53.218;6.548;2022-08-19T07:22:08;13.48;;;10.98;;
51901;SDS011;37929;53.218;6.548;2022-08-19T07:24:35;13.82;;;11.05;;
51901;SDS011;37929;53.218;6.548;2022-08-19T07:27:02;13.38;;;11.20;;
51901;SDS011;37929;53.218;6.548;2022-08-19T07:29:30;14.13;;;11.38;;
51901;SDS011;37929;53.218;6.548;2022-08-19T07:31:58;16.95;;;11.98;;
51901;SDS011;37929;53.218;6.548;2022-08-19T07:34:26;14.23;;;11.73;;
51901;SDS011;37929;53.218;6.548;2022-08-19T07:36:53;15.23;;;11.40;;
51901;SDS011;37929;53.218;6.548;2022-08-19T07:42:08;12.82;;;11.02;;
51901;SDS011;37929;53.218;6.548;2022-08-19T07:44:35;14.95;;;10.90;;
51901;SDS011;37929;53.218;6.548;2022-08-19T07:47:03;16.00;;;11.63;;
51901;SDS011;37929;53.218;6.548;2022-08-19T07:49:29;12.98;;;11.30;;
51901;SDS011;37929;53.218;6.548;2022-08-19T07:51:57;14.45;;;12.02;;
51901;SDS011;37929;53.218;6.548;2022-08-19T07:54:30;16.45;;;10.60;;
51901;SDS011;37929;53.218;6.548;2022-08-19T07:56:59;12.77;;;10.80;;
51901;SDS011;37929;53.218;6.548;2022-08-19T07:59:25;13.40;;;10.80;;
51901;SDS011;37929;53.218;6.548;2022-08-19T08:01:51;12.27;;;10.93;;
51901;SDS011;37929;53.218;6.548;2022-08-19T08:04:18;14.07;;;11.50;;
51901;SDS011;37929;53.218;6.548;2022-08-19T08:07:04;14.45;;;11.75;;
51901;SDS011;37929;53.218;6.548;2022-08-19T08:09:49;14.82;;;12.18;;
51901;SDS011;37929;53.218;6.548;2022-08-19T08:12:23;14.13;;;11.18;;
51901;SDS011;37929;53.218;6.548;2022-08-19T08:14:54;14.82;;;11.40;;
51901;SDS011;37929;53.218;6.548;2022-08-19T08:17:22;12.70;;;11.27;;
51901;SDS011;37929;53.218;6.548;2022-08-19T08:19:50;14.05;;;12.23;;
51901;SDS011;37929;53.218;6.548;2022-08-19T08:22:17;13.70;;;12.30;;
51901;SDS011;37929;53.218;6.548;2022-08-19T08:25:09;12.25;;;10.95;;
51901;SDS011;37929;53.218;6.548;2022-08-19T08:27:41;10.75;;;9.65;;
51901;SDS011;37929;53.218;6.548;2022-08-19T08:30:11;11.75;;;10.55;;
51901;SDS011;37929;53.218;6.548;2022-08-19T08:32:42;11.45;;;10.23;;
51901;SDS011;37929;53.218;6.548;2022-08-19T08:35:10;11.90;;;10.70;;
51901;SDS011;37929;53.218;6.548;2022-08-19T08:37:38;12.43;;;10.55;;
51901;SDS011;37929;53.218;6.548;2022-08-19T08:40:16;15.20;;;12.48;;
51901;SDS011;37929;53.218;6.548;2022-08-19T08:42:49;15.10;;;11.90;;
51901;SDS011;37929;53.218;6.548;2022-08-19T08:45:23;14.55;;;13.05;;
51901;SDS011;37929;53.218;6.548;2022-08-19T08:47:50;14.93;;;13.43;;
51901;SDS011;37929;53.218;6.548;2022-08-19T08:50:24;14.30;;;12.77;;
51901;SDS011;37929;53.218;6.548;2022-08-19T08:52:53;13.93;;;12.27;;
51901;SDS011;37929;53.218;6.548;2022-08-19T08:55:23;13.88;;;12.48;;
51901;SDS011;37929;53.218;6.548;2022-08-19T08:57:53;14.90;;;13.35;;
51901;SDS011;37929;53.218;6.548;2022-08-19T09:02:54;15.85;;;12.02;;
51901;SDS011;37929;53.218;6.548;2022-08-19T09:05:21;14.43;;;13.00;;
51901;SDS011;37929;53.218;6.548;2022-08-19T09:13:08;15.13;;;12.10;;
51901;SDS011;37929;53.218;6.548;2022-08-19T09:15:43;13.75;;;11.70;;
51901;SDS011;37929;53.218;6.548;2022-08-19T09:18:13;13.85;;;12.50;;
51901;SDS011;37929;53.218;6.548;2022-08-19T09:20:41;14.25;;;12.75;;
51901;SDS011;37929;53.218;6.548;2022-08-19T09:23:07;14.50;;;13.00;;
51901;SDS011;37929;53.218;6.548;2022-08-19T09:25:36;15.20;;;13.77;;
51901;SDS011;37929;53.218;6.548;2022-08-19T09:28:02;14.52;;;12.30;;
51901;SDS011;37929;53.218;6.548;2022-08-19T09:30:30;15.20;;;11.63;;
51901;SDS011;37929;53.218;6.548;2022-08-19T09:32:58;12.90;;;11.52;;
51901;SDS011;37929;53.218;6.548;2022-08-19T09:35:26;12.05;;;9.73;;
51901;SDS011;37929;53.218;6.548;2022-08-19T09:37:53;11.88;;;10.45;;
51901;SDS011;37929;53.218;6.548;2022-08-19T09:40:23;13.00;;;10.52;;
51901;SDS011;37929;53.218;6.548;2022-08-19T09:42:49;11.15;;;9.73;;
51901;SDS011;37929;53.218;6.548;2022-08-19T09:45:21;10.68;;;9.63;;
51901;SDS011;37929;53.218;6.548;2022-08-19T09:47:51;9.80;;;8.80;;
51901;SDS011;37929;53.218;6.548;2022-08-19T09:50:17;11.48;;;10.13;;
51901;SDS011;37929;53.218;6.548;2022-08-19T09:52:43;11.93;;;10.50;;
51901;SDS011;37929;53.218;6.548;2022-08-19T09:55:10;11.57;;;10.30;;
51901;SDS011;37929;53.218;6.548;2022-08-19T09:57:39;11.25;;;10.13;;
51901;SDS011;37929;53.218;6.548;2022-08-19T10:00:06;11.65;;;9.70;;
51901;SDS011;37929;53.218;6.548;2022-08-19T10:02:39;11.57;;;10.38;;
51901;SDS011;37929;53.218;6.548;2022-08-19T10:05:04;12.70;;;11.40;;
51901;SDS011;37929;53.218;6.548;2022-08-19T10:07:49;12.40;;;10.93;;
51901;SDS011;37929;53.218;6.548;2022-08-19T10:10:15;12.63;;;11.32;;
51901;SDS011;37929;53.218;6.548;2022-08-19T10:12:41;12.55;;;10.85;;
51901;SDS011;37929;53.218;6.548;2022-08-19T10:15:12;11.88;;;10.50;;
51901;SDS011;37929;53.218;6.548;2022-08-19T10:17:41;12.82;;;10.30;;
51901;SDS011;37929;53.218;6.548;2022-08-19T10:20:10;15.07;;;11.48;;
51901;SDS011;37929;53.218;6.548;2022-08-19T10:22:35;13.50;;;11.48;;
51901;SDS011;37929;53.218;6.548;2022-08-19T10:25:02;13.07;;;11.77;;
51901;SDS011;37929;53.218;6.548;2022-08-19T10:27:29;12.93;;;11.57;;
51901;SDS011;37929;53.218;6.548;2022-08-19T10:29:56;13.45;;;12.15;;
51901;SDS011;37929;53.218;6.548;2022-08-19T10:32:25;12.85;;;11.55;;
51901;SDS011;37929;53.218;6.548;2022-08-19T10:34:50;14.52;;;12.32;;
51901;SDS011;37929;53.218;6.548;2022-08-19T10:37:20;13.65;;;11.95;;
51901;SDS011;37929;53.218;6.548;2022-08-19T10:39:46;13.95;;;12.45;;
51901;SDS011;37929;53.218;6.548;2022-08-19T10:42:12;13.38;;;11.43;;
51901;SDS011;37929;53.218;6.548;2022-08-19T10:44:39;13.57;;;10.60;;
51901;SDS011;37929;53.218;6.548;2022-08-19T10:47:05;13.48;;;10.32;;
51901;SDS011;37929;53.218;6.548;2022-08-19T10:49:30;13.23;;;11.93;;
51901;SDS011;37929;53.218;6.548;2022-08-19T10:51:57;12.65;;;11.40;;
51901;SDS011;37929;53.218;6.548;2022-08-19T10:54:48;11.93;;;10.15;;
51901;SDS011;37929;53.218;6.548;2022-08-19T10:57:35;13.50;;;11.93;;
51901;SDS011;37929;53.218;6.548;2022-08-19T11:00:04;11.88;;;10.52;;
51901;SDS011;37929;53.218;6.548;2022-08-19T11:02:30;13.07;;;11.77;;
51901;SDS011;37929;53.218;6.548;2022-08-19T11:04:57;12.30;;;11.00;;
51901;SDS011;37929;53.218;6.548;2022-08-19T11:07:23;13.05;;;11.30;;
51901;SDS011;37929;53.218;6.548;2022-08-19T11:09:51;13.35;;;11.82;;
51901;SDS011;37929;53.218;6.548;2022-08-19T11:12:20;12.68;;;11.45;;
51901;SDS011;37929;53.218;6.548;2022-08-19T11:14:46;12.05;;;10.85;;
51901;SDS011;37929;53.218;6.548;2022-08-19T11:17:12;13.77;;;11.43;;
51901;SDS011;37929;53.218;6.548;2022-08-19T11:19:38;11.50;;;10.30;;
51901;SDS011;37929;53.218;6.548;2022-08-19T11:22:07;11.88;;;9.25;;
51901;SDS011;37929;53.218;6.548;2022-08-19T11:24:35;13.32;;;11.90;;
51901;SDS011;37929;53.218;6.548;2022-08-19T11:27:06;12.13;;;10.82;;
51901;SDS011;37929;53.218;6.548;2022-08-19T11:29:34;12.10;;;10.90;;
51901;SDS011;37929;53.218;6.548;2022-08-19T11:32:08;14.77;;;13.25;;
51901;SDS011;37929;53.218;6.548;2022-08-19T11:34:35;15.77;;;13.50;;
51901;SDS011;37929;53.218;6.548;2022-08-19T11:37:02;15.98;;;12.63;;
51901;SDS011;37929;53.218;6.548;2022-08-19T11:39:29;14.55;;;12.98;;
51901;SDS011;37929;53.218;6.548;2022-08-19T11:42:01;16.52;;;11.95;;
51901;SDS011;37929;53.218;6.548;2022-08-19T11:44:31;11.05;;;9.93;;
51901;SDS011;37929;53.218;6.548;2022-08-19T11:46:56;11.30;;;9.90;;
51901;SDS011;37929;53.218;6.548;2022-08-19T11:49:28;12.60;;;11.27;;
51901;SDS011;37929;53.218;6.548;2022-08-19T11:52:22;12.90;;;11.70;;
51901;SDS011;37929;53.218;6.548;2022-08-19T11:54:48;12.60;;;11.30;;
51901;SDS011;37929;53.218;6.548;2022-08-19T11:57:17;13.32;;;11.98;;
51901;SDS011;37929;53.218;6.548;2022-08-19T11:59:49;15.30;;;12.93;;
51901;SDS011;37929;53.218;6.548;2022-08-19T12:02:18;14.43;;;12.85;;
51901;SDS011;37929;53.218;6.548;2022-08-19T12:04:44;15.13;;;13.63;;
51901;SDS011;37929;53.218;6.548;2022-08-19T12:07:13;12.80;;;11.32;;
51901;SDS011;37929;53.218;6.548;2022-08-19T12:09:42;11.30;;;10.10;;
51901;SDS011;37929;53.218;6.548;2022-08-19T12:12:11;11.20;;;10.15;;
51901;SDS011;37929;53.218;6.548;2022-08-19T12:14:43;10.25;;;9.25;;
51901;SDS011;37929;53.218;6.548;2022-08-19T12:17:12;12.75;;;9.98;;
51901;SDS011;37929;53.218;6.548;2022-08-19T12:19:38;12.63;;;11.10;;
51901;SDS011;37929;53.218;6.548;2022-08-19T12:22:04;12.45;;;11.13;;
51901;SDS011;37929;53.218;6.548;2022-08-19T12:24:32;11.93;;;10.80;;
51901;SDS011;37929;53.218;6.548;2022-08-19T12:26:58;12.60;;;11.35;;
51901;SDS011;37929;53.218;6.548;2022-08-19T12:29:29;12.65;;;11.35;;
51901;SDS011;37929;53.218;6.548;2022-08-19T12:31:56;13.60;;;11.52;;
51901;SDS011;37929;53.218;6.548;2022-08-19T12:34:26;15.38;;;11.32;;
51901;SDS011;37929;53.218;6.548;2022-08-19T12:36:55;11.38;;;10.05;;
51901;SDS011;37929;53.218;6.548;2022-08-19T12:39:26;13.52;;;12.13;;
51901;SDS011;37929;53.218;6.548;2022-08-19T12:42:08;12.25;;;10.40;;
51901;SDS011;37929;53.218;6.548;2022-08-19T12:44:39;11.05;;;9.90;;
51901;SDS011;37929;53.218;6.548;2022-08-19T12:47:11;11.68;;;10.50;;
51901;SDS011;37929;53.218;6.548;2022-08-19T12:49:47;11.20;;;10.10;;
51901;SDS011;37929;53.218;6.548;2022-08-19T12:52:14;13.75;;;9.90;;
51901;SDS011;37929;53.218;6.548;2022-08-19T12:54:44;10.35;;;9.25;;
51901;SDS011;37929;53.218;6.548;2022-08-19T12:57:15;12.55;;;9.27;;
51901;SDS011;37929;53.218;6.548;2022-08-19T12:59:41;11.23;;;9.88;;
51901;SDS011;37929;53.218;6.548;2022-08-19T13:02:29;12.35;;;9.88;;
51901;SDS011;37929;53.218;6.548;2022-08-19T13:05:03;12.02;;;10.45;;
51901;SDS011;37929;53.218;6.548;2022-08-19T13:07:47;14.43;;;11.45;;
51901;SDS011;37929;53.218;6.548;2022-08-19T13:10:37;14.73;;;12.57;;
51901;SDS011;37929;53.218;6.548;2022-08-19T13:13:12;18.15;;;11.60;;
51901;SDS011;37929;53.218;6.548;2022-08-19T13:15:39;13.95;;;12.05;;
51901;SDS011;37929;53.218;6.548;2022-08-19T13:18:14;15.38;;;10.90;;
51901;SDS011;37929;53.218;6.548;2022-08-19T13:21:14;14.55;;;11.27;;
51901;SDS011;37929;53.218;6.548;2022-08-19T13:23:49;15.93;;;12.65;;
51901;SDS011;37929;53.218;6.548;2022-08-19T13:26:19;16.63;;;13.40;;
51901;SDS011;37929;53.218;6.548;2022-08-19T13:29:12;15.53;;;13.33;;
51901;SDS011;37929;53.218;6.548;2022-08-19T13:32:05;13.43;;;11.82;;
51901;SDS011;37929;53.218;6.548;2022-08-19T13:35:07;18.80;;;12.27;;
51901;SDS011;37929;53.218;6.548;2022-08-19T13:40:43;11.65;;;10.13;;
51901;SDS011;37929;53.218;6.548;2022-08-19T13:43:15;12.93;;;10.15;;
51901;SDS011;37929;53.218;6.548;2022-08-19T13:45:56;13.07;;;10.00;;
51901;SDS011;37929;53.218;6.548;2022-08-19T13:48:38;11.45;;;10.25;;
51901;SDS011;37929;53.218;6.548;2022-08-19T13:51:15;12.20;;;10.13;;
51901;SDS011;37929;53.218;6.548;2022-08-19T13:53:46;12.02;;;10.40;;
51901;SDS011;37929;53.218;6.548;2022-08-19T13:56:18;10.90;;;9.75;;
51901;SDS011;37929;53.218;6.548;2022-08-19T13:58:50;11.68;;;9.50;;
51901;SDS011;37929;53.218;6.548;2022-08-19T14:01:22;10.93;;;9.93;;
51901;SDS011;37929;53.218;6.548;2022-08-19T14:03:48;9.80;;;8.80;;
51901;SDS011;37929;53.218;6.548;2022-08-19T14:06:14;10.40;;;8.07;;
51901;SDS011;37929;53.218;6.548;2022-08-19T14:08:41;8.18;;;6.93;;
51901;SDS011;37929;53.218;6.548;2022-08-19T14:11:08;9.90;;;6.90;;
51901;SDS011;37929;53.218;6.548;2022-08-19T14:13:35;12.38;;;9.00;;
51901;SDS011;37929;53.218;6.548;2022-08-19T14:16:01;12.98;;;9.45;;
51901;SDS011;37929;53.218;6.548;2022-08-19T14:18:35;12.65;;;9.25;;
51901;SDS011;37929;53.218;6.548;2022-08-19T14:21:01;15.38;;;10.13;;
51901;SDS011;37929;53.218;6.548;2022-08-19T14:23:32;14.60;;;11.07;;
51901;SDS011;37929;53.218;6.548;2022-08-19T14:26:09;14.20;;;12.50;;
51901;SDS011;37929;53.218;6.548;2022-08-19T14:28:38;14.52;;;12.48;;
51901;SDS011;37929;53.218;6.548;2022-08-19T14:31:08;17.90;;;13.82;;
51901;SDS011;37929;53.218;6.548;2022-08-19T14:33:38;13.95;;;11.90;;
51901;SDS011;37929;53.218;6.548;2022-08-19T14:36:07;14.88;;;11.55;;
51901;SDS011;37929;53.218;6.548;2022-08-19T14:38:33;16.08;;;13.10;;
51901;SDS011;37929;53.218;6.548;2022-08-19T14:41:13;14.90;;;11.82;;
51901;SDS011;37929;53.218;6.548;2022-08-19T14:43:51;14.73;;;12.27;;
51901;SDS011;37929;53.218;6.548;2022-08-19T14:46:20;16.92;;;12.38;;
51901;SDS011;37929;53.218;6.548;2022-08-19T14:48:48;16.88;;;13.05;;
51901;SDS011;37929;53.218;6.548;2022-08-19T14:51:14;15.55;;;13.80;;
51901;SDS011;37929;53.218;6.548;2022-08-19T14:53:40;18.10;;;13.27;;
51901;SDS011;37929;53.218;6.548;2022-08-19T14:56:08;15.23;;;12.82;;
51901;SDS011;37929;53.218;6.548;2022-08-19T14:58:37;19.83;;;13.05;;
51901;SDS011;37929;53.218;6.548;2022-08-19T15:01:06;15.90;;;13.20;;